ADDS METAR Data INFO
IDs: Format: Raw Decoded Include TAF

Data at: 0441 UTC 24 Apr 2018

KGGG 240353Z AUTO 25005KT 10SM CLR 15/13 A3002 RMK AO2 SLP163 T01500133
KGGG 240253Z AUTO 26004KT 10SM CLR 15/13 A3001 RMK AO2 SLP162 T01500133 53014
KGGG 240153Z 27003KT 10SM CLR 16/13 A2999 RMK AO2 SLP155 T01610133
KGGG 240053Z 30006KT 10SM BKN042 18/14 A2998 RMK AO2 SLP150 T01830139
KGGG 232353Z 31004KT 10SM OVC042 19/14 A2997 RMK AO2 SLP148 T01940139 10211 20161 56005
KGGG 232253Z 30007KT 10SM BKN041 20/13 A2998 RMK AO2 SLP149 T02000133
KGGG 232153Z 28013KT 10SM OVC037 21/13 A2997 RMK AO2 SLP147 T02110133
KGGG 232053Z 28011KT 10SM BKN035 20/13 A2999 RMK AO2 SLP152 T02000128 58015
KGGG 231953Z 28009KT 10SM BKN033 19/13 A3001 RMK AO2 SLP160 T01940128
KGGG 231853Z 30009KT 10SM SCT022 BKN035 18/13 A3002 RMK AO2 SLP164 T01830128
KGGG 231753Z 32010KT 10SM OVC026 16/12 A3003 RMK AO2 SLP169 T01610122 10172 20106 50000
KGGG 231653Z COR 29010KT 10SM OVC026 17/12 A3004 RMK AO2 SLP170 T01670122
KGGG 231553Z 32008KT 10SM OVC024 17/12 A3004 RMK AO2 SLP172 T01670117
KGGG 231534Z 32011KT 10SM BKN024 17/12 A3004 RMK AO2 T01670122
KGGG 231453Z COR 32010KT 10SM SCT020 16/12 A3003 RMK AO2 SLP169 T01610122 51013
KGGG 231353Z 32010KT 10SM CLR 14/12 A3002 RMK AO2 SLP165 T01440117
KGGG 231253Z 30007KT 10SM CLR 12/11 A3002 RMK AO2 SLP164 T01220111
KGGG 231153Z 29006KT 10SM CLR 11/11 A2999 RMK AO2 SLP157 T01060106 10128 20100 53009
KGGG 231053Z 29007KT 10SM CLR 11/11 A2997 RMK AO2 SLP147 T01110106
KGGG 230953Z AUTO 30008KT 10SM CLR 12/11 A2997 RMK AO2 SLP146 T01170106
KGGG 230853Z AUTO 30006KT 10SM CLR 12/11 A2997 RMK AO2 SLP146 T01170106 56008
KGGG 230753Z AUTO 29006KT 10SM OVC043 12/11 A2997 RMK AO2 SLP146 T01170111
KGGG 230653Z AUTO 27004KT 10SM OVC044 13/12 A2998 RMK AO2 SLP151 T01280117
KGGG 230553Z AUTO 00000KT 10SM OVC046 13/11 A2999 RMK AO2 SLP154 T01280111 10161 20122 401940122 58003
KGGG 230453Z AUTO 31003KT 10SM OVC046 14/11 A3000 RMK AO2 SLP156 T01390111
KGGG 230353Z AUTO 31007KT 10SM OVC050 14/11 A3001 RMK AO2 SLP160 T01440106
KGGG 230253Z 30006KT 10SM OVC060 14/11 A3000 RMK AO2 SLP158 T01390111 53008
KGGG 230153Z 31004KT 10SM BKN047 OVC065 14/11 A2999 RMK AO2 SLP155 T01440111
KGGG 230053Z 29003KT 10SM BKN055 14/11 A2998 RMK AO2 SLP151 T01440111
KGGG 222353Z 31007KT 10SM BKN050 16/10 A2998 RMK AO2 SLP150 T01610100 10194 20144 50004
KGGG 222253Z 32009KT 10SM BKN047 17/10 A2998 RMK AO2 SLP150 T01670100
KGGG 222153Z 32015G20KT 10SM BKN033 17/10 A2997 RMK AO2 SLP146 T01720100
KGGG 222053Z 30012KT 10SM BKN038 18/11 A2996 RMK AO2 SLP144 T01780106 57017
KGGG 221956Z 30016G19KT 10SM BKN032 19/12 A2998 RMK AO2 T01890117
KGGG 221953Z 27012G17KT 10SM BKN026 19/12 A2998 RMK AO2 SLP150 T01890117
KGGG 221853Z 29013KT 10SM BKN026 18/12 A3000 RMK AO2 SLP155 T01780117
KGGG 221753Z 27011KT 10SM OVC019 15/11 A3001 RMK AO2 SLP161 T01500111 10150 20128 50003
KGGG 221653Z 31008KT 10SM OVC016 13/12 A3003 RMK AO2 SLP168 T01330117